Time;durP1;ratioP1;P1;durP2;ratioP2;P2;SDS_P1;SDS_P2;PMS_P1;PMS_P2;Temp;Humidity;BMP_temperature;BMP_pressure;BME280_temperature;BME280_humidity;BME280_pressure;Samples;Min_cycle;Max_cycle;Signal;HPM_P1;HPM_P2
2021/08/11 00:00:22;;;;;;;13.68;12.38;;;15.70;94.30;;;;;;5112240;28;20558;-78
2021/08/11 00:02:48;;;;;;;14.57;12.57;;;15.60;94.30;;;;;;5112658;28;20405;-78
2021/08/11 00:05:14;;;;;;;15.63;13.27;;;15.70;94.30;;;;;;5112489;28;20035;-79
2021/08/11 00:07:39;;;;;;;13.98;12.57;;;15.60;94.40;;;;;;5112256;28;20110;-78
2021/08/11 00:10:06;;;;;;;13.80;12.05;;;15.70;94.40;;;;;;5113895;28;20464;-79
2021/08/11 00:12:32;;;;;;;14.10;12.60;;;15.70;94.40;;;;;;5111939;28;20068;-78
2021/08/11 00:14:58;;;;;;;13.38;12.05;;;15.60;94.40;;;;;;5112206;28;20031;-78
2021/08/11 00:17:23;;;;;;;13.60;12.27;;;15.60;94.40;;;;;;5094475;28;20032;-78
2021/08/11 00:19:50;;;;;;;13.27;11.63;;;15.60;94.40;;;;;;5113449;27;20031;-78
2021/08/11 00:22:16;;;;;;;13.38;12.02;;;15.60;94.40;;;;;;5113566;28;20027;-79
2021/08/11 00:24:41;;;;;;;12.85;11.52;;;15.60;94.50;;;;;;5110987;28;20032;-79
2021/08/11 00:27:08;;;;;;;13.60;11.32;;;15.60;94.50;;;;;;5095416;28;20452;-79
2021/08/11 00:29:34;;;;;;;14.27;12.77;;;15.60;94.50;;;;;;5111745;28;20383;-79
2021/08/11 00:31:59;;;;;;;14.02;12.57;;;15.50;94.50;;;;;;5113349;28;20421;-78
2021/08/11 00:34:27;;;;;;;15.02;11.82;;;15.60;94.50;;;;;;5094719;28;20027;-79
2021/08/11 00:36:53;;;;;;;12.73;11.52;;;15.50;94.50;;;;;;5113429;28;20087;-79
2021/08/11 00:39:19;;;;;;;13.48;11.63;;;15.50;94.50;;;;;;5111737;28;20034;-81
2021/08/11 00:41:45;;;;;;;12.82;11.45;;;15.50;94.50;;;;;;5094800;28;20027;-78
2021/08/11 00:44:12;;;;;;;14.95;12.30;;;15.50;94.50;;;;;;5112358;28;20379;-78
2021/08/11 00:46:42;;;;;;;16.88;12.57;;;15.50;94.50;;;;;;5112654;28;20034;-78
2021/08/11 00:49:14;;;;;;;15.02;12.20;;;15.50;94.50;;;;;;5111605;28;20035;-80
2021/08/11 00:51:41;;;;;;;15.25;12.82;;;15.50;94.60;;;;;;5110875;28;20019;-78
2021/08/11 00:54:08;;;;;;;15.70;12.10;;;15.50;94.60;;;;;;5110797;28;20050;-79
2021/08/11 00:56:36;;;;;;;14.13;12.30;;;15.50;94.60;;;;;;5110836;28;20126;-79
2021/08/11 00:59:06;;;;;;;13.77;12.48;;;15.50;94.60;;;;;;5112948;28;20056;-78
2021/08/11 01:01:32;;;;;;;14.00;11.48;;;15.50;94.60;;;;;;5111918;28;20032;-78
2021/08/11 01:04:00;;;;;;;13.25;11.13;;;15.40;94.60;;;;;;5111498;28;20030;-79
2021/08/11 01:06:27;;;;;;;14.18;11.60;;;15.50;94.60;;;;;;5111762;28;20119;-82
2021/08/11 01:08:54;;;;;;;13.20;11.80;;;15.50;94.60;;;;;;5112027;28;20064;-78
2021/08/11 01:11:21;;;;;;;13.88;11.68;;;15.50;94.60;;;;;;5113710;28;20080;-78
2021/08/11 01:13:47;;;;;;;13.10;11.82;;;15.50;94.60;;;;;;5110836;28;20035;-78
2021/08/11 01:16:13;;;;;;;13.13;11.82;;;15.50;94.60;;;;;;5112450;28;20028;-79
2021/08/11 01:18:39;;;;;;;12.68;11.48;;;15.60;94.70;;;;;;5094489;28;20479;-78
2021/08/11 01:21:27;;;;;;;13.63;11.88;;;15.50;94.60;;;;;;5111624;28;20185;-78
2021/08/11 01:24:01;;;;;;;12.70;11.27;;;15.40;94.60;;;;;;5112329;28;20416;-79
2021/08/11 01:26:54;;;;;;;12.57;11.27;;;15.40;94.60;;;;;;5112383;28;20163;-81
2021/08/11 01:29:31;;;;;;;12.15;10.90;;;15.30;94.60;;;;;;5112249;28;20034;-78
2021/08/11 01:32:03;;;;;;;12.27;10.93;;;15.30;94.80;;;;;;5114961;28;20126;-78
2021/08/11 01:34:40;;;;;;;14.43;11.30;;;15.30;94.60;;;;;;5116894;28;20099;-81
2021/08/11 01:37:09;;;;;;;12.73;11.43;;;15.30;94.60;;;;;;5115410;28;20495;-77
2021/08/11 01:39:43;;;;;;;13.10;11.35;;;15.30;94.60;;;;;;5116486;28;20080;-77
2021/08/11 01:42:23;;;;;;;13.45;11.32;;;15.30;94.60;;;;;;5115430;28;20050;-77
2021/08/11 01:44:48;;;;;;;11.90;10.70;;;15.20;94.60;;;;;;5114371;28;20552;-77
2021/08/11 01:47:18;;;;;;;11.68;10.50;;;15.20;94.60;;;;;;5115520;28;20126;-79
2021/08/11 01:49:46;;;;;;;12.30;10.85;;;15.20;94.60;;;;;;5114546;28;20050;-77
2021/08/11 01:52:14;;;;;;;11.48;10.27;;;15.10;94.50;;;;;;5116118;28;20478;-76
2021/08/11 01:54:41;;;;;;;11.45;10.23;;;15.10;94.50;;;;;;5114488;28;20038;-77
2021/08/11 01:57:10;;;;;;;12.27;11.07;;;15.10;94.60;;;;;;5115083;28;20023;-77
2021/08/11 01:59:38;;;;;;;12.25;11.05;;;15.10;94.50;;;;;;5113555;28;20645;-78
2021/08/11 02:02:04;;;;;;;17.65;11.95;;;15.00;94.50;;;;;;5116187;27;20102;-77
2021/08/11 02:04:31;;;;;;;13.70;12.20;;;15.00;94.50;;;;;;5116260;28;20098;-78
2021/08/11 02:06:57;;;;;;;14.85;11.23;;;15.00;94.60;;;;;;5097591;28;20114;-77
2021/08/11 02:09:24;;;;;;;14.88;12.95;;;15.00;94.60;;;;;;5114730;28;20036;-77
2021/08/11 02:11:50;;;;;;;17.98;13.13;;;15.10;94.60;;;;;;5113778;28;20031;-77
2021/08/11 02:14:16;;;;;;;14.80;12.93;;;15.10;94.50;;;;;;5115625;28;20039;-78
2021/08/11 02:16:42;;;;;;;16.52;14.23;;;15.10;94.50;;;;;;5096838;28;20035;-78
2021/08/11 02:19:09;;;;;;;29.27;14.98;;;15.10;94.50;;;;;;5114340;28;20039;-78
2021/08/11 02:21:35;;;;;;;46.05;15.80;;;15.00;94.40;;;;;;5114151;28;20039;-82
2021/08/11 02:24:03;;;;;;;38.63;16.23;;;15.00;94.40;;;;;;5114791;28;20507;-77
2021/08/11 02:26:38;;;;;;;34.42;15.48;;;15.00;94.40;;;;;;5097854;28;20027;-77
2021/08/11 02:29:19;;;;;;;30.10;15.75;;;14.90;94.50;;;;;;5116031;28;20036;-77
2021/08/11 02:31:58;;;;;;;28.33;16.58;;;14.90;94.60;;;;;;5114254;28;20031;-77
2021/08/11 02:35:08;;;;;;;19.83;14.43;;;14.80;94.50;;;;;;5116448;28;20031;-78
2021/08/11 02:37:42;;;;;;;15.40;13.35;;;14.80;94.60;;;;;;5108815;28;20063;-78
2021/08/11 02:40:15;;;;;;;15.07;12.70;;;14.80;94.60;;;;;;5100434;28;20045;-79
2021/08/11 02:42:47;;;;;;;18.85;12.60;;;14.80;94.60;;;;;;5112800;28;20048;-77
2021/08/11 02:45:16;;;;;;;20.40;11.90;;;14.90;94.60;;;;;;5114502;28;20027;-77
2021/08/11 02:47:44;;;;;;;26.50;10.40;;;14.90;94.50;;;;;;5107838;28;20027;-77
2021/08/11 02:50:11;;;;;;;12.35;9.60;;;14.80;94.50;;;;;;5093292;28;20060;-77
2021/08/11 02:52:38;;;;;;;10.25;9.23;;;14.80;94.50;;;;;;5092688;28;20024;-77
2021/08/11 02:55:05;;;;;;;12.93;8.23;;;14.80;94.60;;;;;;5103300;28;20032;-76
2021/08/11 02:57:33;;;;;;;10.20;8.30;;;14.80;94.60;;;;;;5113507;28;20024;-77
2021/08/11 03:00:00;;;;;;;8.43;7.55;;;14.80;94.60;;;;;;5114246;28;20043;-77
2021/08/11 03:02:26;;;;;;;9.57;7.75;;;14.80;94.60;;;;;;5112802;28;20040;-77
2021/08/11 03:04:53;;;;;;;8.82;7.50;;;14.80;94.50;;;;;;5113089;28;20020;-77
2021/08/11 03:07:18;;;;;;;9.18;7.75;;;14.80;94.50;;;;;;5096651;28;20031;-77
2021/08/11 03:09:44;;;;;;;8.70;7.85;;;14.80;94.50;;;;;;5112811;27;20032;-81
2021/08/11 03:12:11;;;;;;;9.07;7.10;;;14.80;94.50;;;;;;5096000;28;20176;-77
2021/08/11 03:14:41;;;;;;;9.13;7.68;;;14.70;94.40;;;;;;5130019;27;20122;-77
2021/08/11 03:17:13;;;;;;;7.80;6.90;;;14.70;94.50;;;;;;5113802;28;20039;-76
2021/08/11 03:19:39;;;;;;;10.93;7.53;;;14.70;94.50;;;;;;5113645;28;20035;-77
2021/08/11 03:22:07;;;;;;;8.50;7.68;;;14.60;94.50;;;;;;5113445;27;20024;-77
2021/08/11 03:24:33;;;;;;;14.90;7.22;;;14.60;94.60;;;;;;5113821;28;20032;-76
2021/08/11 03:26:59;;;;;;;12.60;7.82;;;14.60;94.60;;;;;;5112981;28;20027;-78
2021/08/11 03:29:24;;;;;;;15.20;7.32;;;14.70;94.60;;;;;;5096174;28;20039;-78
2021/08/11 03:31:50;;;;;;;15.27;7.18;;;14.70;94.70;;;;;;5112529;28;20029;-77
2021/08/11 03:34:16;;;;;;;13.10;7.05;;;14.70;94.70;;;;;;5113128;28;20490;-77
2021/08/11 03:36:41;;;;;;;7.32;6.45;;;14.70;94.70;;;;;;5114309;28;20105;-77
2021/08/11 03:39:08;;;;;;;8.55;7.10;;;14.70;94.70;;;;;;5112659;28;20106;-77
2021/08/11 03:41:33;;;;;;;7.30;6.65;;;14.70;94.70;;;;;;5113300;28;20122;-77
2021/08/11 03:43:59;;;;;;;8.57;7.25;;;14.70;94.70;;;;;;5113762;28;20062;-77
2021/08/11 03:46:25;;;;;;;7.45;6.60;;;14.70;94.70;;;;;;5113979;28;20455;-76
2021/08/11 03:48:50;;;;;;;8.13;6.57;;;14.70;94.70;;;;;;5114575;28;20375;-80
2021/08/11 03:51:16;;;;;;;6.82;6.22;;;14.70;94.70;;;;;;5112847;28;20476;-78
2021/08/11 03:53:41;;;;;;;7.32;5.95;;;14.70;94.70;;;;;;5103562;28;20040;-79
2021/08/11 03:56:07;;;;;;;7.10;6.40;;;14.70;94.60;;;;;;5081902;28;20481;-76
2021/08/11 03:58:34;;;;;;;8.02;6.47;;;14.70;94.60;;;;;;5058147;28;20480;-77
2021/08/11 04:01:00;;;;;;;10.18;6.47;;;14.70;94.60;;;;;;5098482;28;20028;-76
2021/08/11 04:03:26;;;;;;;9.02;6.85;;;14.60;94.60;;;;;;5114335;28;20077;-76
2021/08/11 04:05:52;;;;;;;7.95;7.03;;;14.70;94.60;;;;;;5113007;28;20378;-79
2021/08/11 04:08:17;;;;;;;8.00;7.05;;;14.60;94.60;;;;;;5112592;28;20467;-77
2021/08/11 04:10:45;;;;;;;10.35;7.18;;;14.70;94.60;;;;;;5092225;28;20069;-76
2021/08/11 04:13:14;;;;;;;9.73;7.13;;;14.60;94.50;;;;;;5107960;28;20024;-77
2021/08/11 04:15:41;;;;;;;10.07;6.90;;;14.50;94.50;;;;;;5091688;28;20111;-77
2021/08/11 04:18:06;;;;;;;10.57;7.10;;;14.50;94.60;;;;;;5090302;28;20483;-76
2021/08/11 04:20:32;;;;;;;8.57;7.55;;;14.50;94.60;;;;;;5090722;28;20036;-77
2021/08/11 04:22:57;;;;;;;7.22;6.53;;;14.50;94.60;;;;;;5092079;28;20793;-77
2021/08/11 04:25:23;;;;;;;7.25;6.75;;;14.50;94.60;;;;;;5090958;28;20032;-77
2021/08/11 04:27:49;;;;;;;8.18;7.50;;;14.50;94.60;;;;;;5074147;28;20032;-78
2021/08/11 04:30:14;;;;;;;13.13;7.63;;;14.60;94.60;;;;;;5092924;28;20028;-76
2021/08/11 04:32:40;;;;;;;13.05;8.30;;;14.70;94.60;;;;;;5093177;28;20035;-78
2021/08/11 04:35:07;;;;;;;9.50;8.70;;;14.70;94.60;;;;;;5110969;28;20452;-77
2021/08/11 04:37:38;;;;;;;8.38;7.68;;;14.80;94.60;;;;;;5112832;28;20020;-76
2021/08/11 04:40:08;;;;;;;9.38;8.48;;;14.90;94.50;;;;;;5111178;28;20483;-76
2021/08/11 04:42:35;;;;;;;9.73;8.43;;;15.00;94.40;;;;;;5111756;28;20042;-76
2021/08/11 04:45:04;;;;;;;9.68;8.68;;;15.00;94.30;;;;;;5128096;27;20020;-78
2021/08/11 04:47:29;;;;;;;9.20;8.38;;;15.00;94.30;;;;;;5111065;28;20432;-76
2021/08/11 04:49:55;;;;;;;9.82;8.20;;;15.00;94.20;;;;;;5111836;28;20039;-76
2021/08/11 04:52:21;;;;;;;10.25;7.97;;;15.10;94.20;;;;;;5111988;28;20024;-77
2021/08/11 04:54:46;;;;;;;9.82;8.25;;;15.10;94.10;;;;;;5112820;28;20032;-76
2021/08/11 04:57:12;;;;;;;10.93;9.82;;;15.20;94.10;;;;;;5114695;28;20443;-76
2021/08/11 04:59:37;;;;;;;11.50;9.43;;;15.20;94.00;;;;;;5114343;28;20134;-78
2021/08/11 05:02:03;;;;;;;13.88;9.82;;;15.40;93.80;;;;;;5095999;28;20062;-77
2021/08/11 05:04:29;;;;;;;15.88;9.40;;;15.40;93.60;;;;;;5095451;28;20324;-76
2021/08/11 05:06:55;;;;;;;14.75;9.15;;;15.50;93.50;;;;;;5094582;28;20032;-78
2021/08/11 05:09:20;;;;;;;14.80;9.07;;;15.60;93.50;;;;;;5093943;28;20036;-78
2021/08/11 05:11:47;;;;;;;10.85;9.07;;;15.90;93.40;;;;;;5112746;28;20436;-78
2021/08/11 05:14:12;;;;;;;11.65;9.27;;;16.20;93.00;;;;;;5112219;28;20055;-77
2021/08/11 05:16:38;;;;;;;9.23;8.25;;;16.40;92.50;;;;;;5112424;28;20054;-77
2021/08/11 05:19:04;;;;;;;8.60;7.80;;;16.30;92.20;;;;;;5112001;28;20059;-80
2021/08/11 05:21:29;;;;;;;8.50;7.80;;;16.40;92.30;;;;;;5112499;28;20028;-77
2021/08/11 05:23:55;;;;;;;7.85;7.20;;;16.40;92.30;;;;;;5110957;28;20028;-77
2021/08/11 05:26:21;;;;;;;7.75;7.15;;;16.40;92.40;;;;;;5112110;28;20899;-77
2021/08/11 05:28:47;;;;;;;8.68;7.88;;;16.40;92.40;;;;;;5111002;28;20376;-77
2021/08/11 05:31:13;;;;;;;9.57;7.70;;;16.50;92.40;;;;;;5110024;28;20122;-78
2021/08/11 05:33:39;;;;;;;8.63;7.82;;;16.50;92.30;;;;;;5112232;28;20078;-77
2021/08/11 05:36:05;;;;;;;8.27;7.47;;;16.50;92.20;;;;;;5112483;28;20475;-81
2021/08/11 05:38:31;;;;;;;11.15;9.10;;;16.60;92.30;;;;;;5111150;28;20216;-77
2021/08/11 05:40:57;;;;;;;9.32;8.23;;;16.80;92.20;;;;;;5110775;28;20593;-77
2021/08/11 05:43:22;;;;;;;15.32;8.88;;;17.10;91.90;;;;;;5110372;28;20036;-77
2021/08/11 05:45:48;;;;;;;11.63;8.00;;;17.40;91.30;;;;;;5112340;28;20020;-75
2021/08/11 05:48:14;;;;;;;9.88;7.70;;;17.70;91.00;;;;;;5126683;28;20036;-77
2021/08/11 05:50:40;;;;;;;12.20;7.97;;;18.00;90.40;;;;;;5111988;28;20028;-76
2021/08/11 05:53:05;;;;;;;9.73;8.38;;;18.30;89.90;;;;;;5091435;28;20081;-76
2021/08/11 05:55:31;;;;;;;8.35;7.55;;;18.50;88.90;;;;;;5091818;28;20036;-77
2021/08/11 05:57:56;;;;;;;8.10;7.30;;;18.80;88.10;;;;;;5076964;28;20038;-77
2021/08/11 06:00:22;;;;;;;8.30;7.60;;;19.30;87.00;;;;;;5104112;28;20123;-77
2021/08/11 06:02:48;;;;;;;9.65;6.90;;;19.80;85.50;;;;;;5096366;28;20464;-77
2021/08/11 06:05:13;;;;;;;7.15;6.53;;;20.20;83.70;;;;;;5099363;28;20023;-78
2021/08/11 06:07:39;;;;;;;7.15;6.47;;;20.30;82.50;;;;;;5064469;28;20028;-76
2021/08/11 06:10:06;;;;;;;6.97;6.47;;;20.10;82.80;;;;;;5097777;28;20109;-77
2021/08/11 06:12:32;;;;;;;6.57;6.00;;;20.00;83.70;;;;;;5110514;28;20027;-77
2021/08/11 06:14:58;;;;;;;6.95;6.35;;;20.70;82.80;;;;;;5111774;28;20532;-76
2021/08/11 06:17:23;;;;;;;6.35;5.93;;;21.20;80.80;;;;;;5092828;28;20118;-77
2021/08/11 06:19:49;;;;;;;6.85;6.35;;;21.40;79.60;;;;;;5098693;28;20055;-78
2021/08/11 06:22:16;;;;;;;8.05;7.45;;;21.30;78.90;;;;;;5101390;28;20020;-80
2021/08/11 06:24:42;;;;;;;7.82;7.20;;;21.30;79.00;;;;;;5109878;28;20032;-77
2021/08/11 06:27:08;;;;;;;7.28;6.78;;;21.30;78.60;;;;;;5113142;28;20045;-77
2021/08/11 06:29:33;;;;;;;8.50;7.70;;;21.20;79.40;;;;;;5109693;28;20024;-77
2021/08/11 06:31:59;;;;;;;8.65;7.95;;;21.10;80.00;;;;;;5105484;28;20117;-78
2021/08/11 06:34:25;;;;;;;8.38;7.68;;;21.20;80.20;;;;;;5104934;28;20036;-77
2021/08/11 06:36:51;;;;;;;9.32;8.52;;;21.30;79.80;;;;;;5093473;28;20028;-78
2021/08/11 06:39:17;;;;;;;9.40;8.60;;;21.30;79.50;;;;;;5095799;28;20024;-81
2021/08/11 06:41:43;;;;;;;9.30;8.40;;;21.20;79.30;;;;;;5113124;28;20202;-78
2021/08/11 06:44:08;;;;;;;10.32;9.05;;;21.00;79.90;;;;;;5114333;28;20256;-78
2021/08/11 06:46:34;;;;;;;10.60;9.70;;;21.00;80.70;;;;;;5118026;27;20323;-80
2021/08/11 06:49:00;;;;;;;11.73;10.50;;;21.00;80.30;;;;;;5076801;28;20024;-79
2021/08/11 06:51:26;;;;;;;12.05;10.93;;;21.10;80.50;;;;;;5091546;28;20089;-78
2021/08/11 06:53:51;;;;;;;13.75;9.60;;;21.20;80.00;;;;;;5106782;28;20099;-78
2021/08/11 06:56:17;;;;;;;10.35;9.45;;;21.30;80.10;;;;;;5111118;28;20055;-82
2021/08/11 06:58:43;;;;;;;11.18;10.18;;;21.40;80.30;;;;;;5109196;28;20548;-78
2021/08/11 07:01:09;;;;;;;11.80;9.93;;;21.60;80.20;;;;;;5112972;28;20028;-80
2021/08/11 07:03:34;;;;;;;13.00;11.77;;;21.90;79.90;;;;;;5111372;28;20403;-81
2021/08/11 07:06:01;;;;;;;14.20;12.80;;;22.00;79.30;;;;;;5103102;28;20038;-78
2021/08/11 07:08:26;;;;;;;15.63;14.18;;;22.10;78.90;;;;;;5092764;28;20027;-78
2021/08/11 07:10:53;;;;;;;17.10;15.50;;;22.20;78.40;;;;;;5110110;28;20047;-78
2021/08/11 07:13:20;;;;;;;16.85;15.27;;;22.40;77.90;;;;;;5092430;28;20047;-82
2021/08/11 07:15:45;;;;;;;16.55;14.98;;;22.50;76.90;;;;;;5093939;28;20024;-77
2021/08/11 07:18:19;;;;;;;16.58;15.05;;;22.80;77.00;;;;;;5097822;28;20039;-78
2021/08/11 07:20:45;;;;;;;16.40;14.82;;;22.90;75.50;;;;;;5127304;27;20028;-79
2021/08/11 07:23:11;;;;;;;17.13;15.55;;;22.90;75.30;;;;;;5112328;28;20137;-78
2021/08/11 07:25:37;;;;;;;17.00;15.43;;;22.80;75.80;;;;;;5111290;28;20150;-78
2021/08/11 07:28:03;;;;;;;15.13;13.65;;;22.70;76.30;;;;;;5109025;28;20073;-78
2021/08/11 07:30:29;;;;;;;14.32;12.98;;;22.90;77.00;;;;;;5103400;28;20543;-77
2021/08/11 07:32:54;;;;;;;15.40;12.50;;;23.30;76.40;;;;;;5113951;28;20026;-77
2021/08/11 07:35:20;;;;;;;16.13;14.63;;;23.80;75.30;;;;;;5100121;28;20032;-79
2021/08/11 07:37:50;;;;;;;16.25;14.77;;;24.50;73.10;;;;;;5075426;28;20048;-77
2021/08/11 07:40:16;;;;;;;19.85;18.05;;;24.70;71.70;;;;;;5099411;28;20114;-78
2021/08/11 07:42:42;;;;;;;18.77;17.13;;;24.80;70.50;;;;;;5111869;28;20024;-80
2021/08/11 07:45:10;;;;;;;17.70;16.17;;;24.70;70.20;;;;;;5113842;28;20028;-79
2021/08/11 07:47:36;;;;;;;21.15;19.20;;;24.40;70.60;;;;;;5101170;28;20096;-78
2021/08/11 07:50:03;;;;;;;17.90;16.17;;;24.10;71.60;;;;;;5096537;28;20032;-78
2021/08/11 07:52:29;;;;;;;17.85;16.25;;;23.80;72.10;;;;;;5102451;28;20024;-81
2021/08/11 07:54:55;;;;;;;17.05;15.48;;;23.50;73.00;;;;;;5110633;28;20077;-78
2021/08/11 07:57:21;;;;;;;16.73;15.23;;;23.30;74.10;;;;;;5110290;28;20499;-78
2021/08/11 07:59:47;;;;;;;16.25;14.80;;;23.40;74.70;;;;;;5098676;28;20104;-79
2021/08/11 08:02:13;;;;;;;14.95;13.75;;;23.30;75.00;;;;;;5099987;28;20036;-82
2021/08/11 08:04:41;;;;;;;13.80;12.60;;;23.30;75.30;;;;;;5098081;28;20023;-79
2021/08/11 08:07:07;;;;;;;13.18;12.05;;;23.30;75.70;;;;;;5100164;28;20472;-78
2021/08/11 08:09:33;;;;;;;11.88;10.68;;;23.40;75.60;;;;;;5088426;28;20054;-79
2021/08/11 08:11:58;;;;;;;12.52;11.40;;;23.50;75.40;;;;;;5085840;28;20081;-78
2021/08/11 08:14:24;;;;;;;11.85;10.73;;;23.60;74.90;;;;;;5076808;28;20034;-78
2021/08/11 08:16:50;;;;;;;10.93;9.95;;;23.80;74.90;;;;;;5112033;28;20031;-77
2021/08/11 08:19:15;;;;;;;9.93;9.00;;;24.00;72.80;;;;;;5104783;28;20419;-82
2021/08/11 08:21:41;;;;;;;10.02;9.02;;;23.80;72.90;;;;;;5112345;28;20020;-77
2021/08/11 08:24:07;;;;;;;8.80;8.05;;;23.40;73.70;;;;;;5112517;28;20027;-77
2021/08/11 08:26:32;;;;;;;9.85;8.95;;;23.30;74.90;;;;;;5072392;28;20185;-82
2021/08/11 08:28:58;;;;;;;9.57;7.80;;;23.70;74.60;;;;;;5108942;28;20032;-79
2021/08/11 08:31:24;;;;;;;8.68;7.78;;;24.40;73.50;;;;;;5113159;28;20038;-79
2021/08/11 08:33:49;;;;;;;8.50;7.60;;;25.00;72.70;;;;;;5110477;28;20376;-82
2021/08/11 08:36:15;;;;;;;10.82;8.60;;;25.50;71.10;;;;;;5112295;28;20032;-79
2021/08/11 08:38:41;;;;;;;11.40;9.05;;;25.50;69.50;;;;;;5110396;28;20062;-80
2021/08/11 08:41:09;;;;;;;9.43;8.52;;;25.20;69.80;;;;;;5106938;28;20047;-79
2021/08/11 08:43:35;;;;;;;10.88;9.77;;;25.10;70.60;;;;;;5107253;28;20027;-84
2021/08/11 08:46:01;;;;;;;9.85;8.95;;;25.20;70.50;;;;;;5092801;28;20028;-81
2021/08/11 08:48:27;;;;;;;11.07;9.98;;;25.50;70.20;;;;;;5057275;28;20093;-79
2021/08/11 08:50:53;;;;;;;10.73;9.63;;;25.80;69.00;;;;;;5091264;28;20515;-81
2021/08/11 08:53:23;;;;;;;10.35;9.32;;;26.00;69.20;;;;;;5111456;28;20074;-80
2021/08/11 08:55:53;;;;;;;10.75;9.75;;;26.30;68.40;;;;;;5111258;28;20019;-79
2021/08/11 08:58:19;;;;;;;11.23;10.13;;;26.30;68.30;;;;;;5110892;28;20024;-79
2021/08/11 09:00:46;;;;;;;12.15;11.00;;;26.20;67.70;;;;;;5072902;28;20056;-79
2021/08/11 09:03:12;;;;;;;12.52;11.27;;;26.10;67.50;;;;;;5105419;28;20096;-80
2021/08/11 09:05:38;;;;;;;15.82;14.32;;;25.80;68.00;;;;;;5092435;28;20653;-84
2021/08/11 09:08:06;;;;;;;16.80;15.30;;;25.40;69.00;;;;;;5077544;28;20023;-79
2021/08/11 09:10:32;;;;;;;13.88;12.50;;;25.00;69.80;;;;;;5110559;28;20023;-79
2021/08/11 09:12:59;;;;;;;14.98;13.45;;;24.70;70.60;;;;;;5110655;28;20379;-79
2021/08/11 09:15:38;;;;;;;17.23;15.43;;;24.50;71.20;;;;;;5093352;28;20035;-80
2021/08/11 09:18:21;;;;;;;17.63;15.82;;;24.30;72.00;;;;;;5090747;28;20020;-79
2021/08/11 09:20:49;;;;;;;19.63;17.60;;;24.30;72.10;;;;;;5099982;28;20052;-79
2021/08/11 09:23:31;;;;;;;20.48;18.27;;;24.30;72.20;;;;;;5098052;28;20083;-78
2021/08/11 09:26:03;;;;;;;20.63;17.25;;;24.40;72.00;;;;;;5111072;28;20024;-79
2021/08/11 09:28:32;;;;;;;19.17;16.45;;;24.60;72.30;;;;;;5112780;28;20023;-79
2021/08/11 09:30:58;;;;;;;17.75;15.10;;;24.90;71.30;;;;;;5103824;28;20027;-79
2021/08/11 09:33:24;;;;;;;14.90;13.32;;;25.30;70.20;;;;;;5107413;28;20118;-81
2021/08/11 09:35:51;;;;;;;14.55;13.05;;;25.60;69.30;;;;;;5093811;28;20367;-79
2021/08/11 09:38:17;;;;;;;14.57;12.98;;;26.00;69.00;;;;;;5090576;28;20106;-81
2021/08/11 09:40:43;;;;;;;14.77;13.27;;;26.70;68.00;;;;;;5081501;28;20036;-83
2021/08/11 09:43:16;;;;;;;13.40;12.00;;;27.50;66.00;;;;;;5091538;28;20035;-79
2021/08/11 09:45:53;;;;;;;14.00;12.43;;;27.90;64.30;;;;;;5105924;28;20030;-83
2021/08/11 09:48:39;;;;;;;14.38;12.98;;;28.20;63.50;;;;;;5110503;28;20035;-80
2021/08/11 09:51:06;;;;;;;14.52;13.02;;;28.50;62.20;;;;;;5109949;28;20031;-79
2021/08/11 09:53:37;;;;;;;12.40;11.15;;;28.40;62.20;;;;;;5114194;28;20088;-79
2021/08/11 09:56:11;;;;;;;12.07;10.88;;;28.60;62.20;;;;;;5078584;28;20120;-80
2021/08/11 09:59:01;;;;;;;11.23;10.23;;;29.00;61.20;;;;;;5096117;28;20035;-80
2021/08/11 10:01:27;;;;;;;10.23;9.15;;;29.30;60.70;;;;;;5107655;28;20028;-80
2021/08/11 10:04:02;;;;;;;11.60;10.23;;;29.60;60.10;;;;;;5110446;27;20032;-78
2021/08/11 10:06:44;;;;;;;13.25;9.93;;;29.90;58.00;;;;;;5103431;28;20486;-78
2021/08/11 10:09:17;;;;;;;14.77;10.82;;;29.40;57.90;;;;;;5102527;28;20046;-79
2021/08/11 10:11:47;;;;;;;11.60;10.43;;;28.60;58.60;;;;;;5109070;28;20028;-79
2021/08/11 10:14:13;;;;;;;11.82;10.65;;;28.00;60.20;;;;;;5113923;28;20020;-79
2021/08/11 10:16:40;;;;;;;12.68;11.48;;;27.70;61.00;;;;;;5114381;28;20030;-80
2021/08/11 10:19:07;;;;;;;12.73;11.43;;;27.60;61.50;;;;;;5097537;28;20050;-79
2021/08/11 10:21:39;;;;;;;14.05;12.23;;;27.80;61.80;;;;;;5084707;28;20170;-81
2021/08/11 10:24:05;;;;;;;12.57;10.90;;;27.80;61.50;;;;;;5106448;28;20035;-79
2021/08/11 10:26:31;;;;;;;12.65;11.40;;;27.50;61.50;;;;;;5098318;28;20181;-79
2021/08/11 10:28:58;;;;;;;14.13;11.95;;;27.00;62.20;;;;;;5102282;28;20067;-80
2021/08/11 10:31:24;;;;;;;10.63;9.52;;;26.80;62.90;;;;;;5097556;28;20032;-81
2021/08/11 10:33:51;;;;;;;10.73;9.70;;;26.60;63.10;;;;;;5117416;27;20028;-82
2021/08/11 10:36:17;;;;;;;10.20;9.25;;;26.50;62.40;;;;;;5106278;28;20040;-79
2021/08/11 10:38:45;;;;;;;11.75;8.90;;;26.60;63.60;;;;;;5093671;28;20056;-77
2021/08/11 10:41:12;;;;;;;9.88;8.88;;;26.80;63.40;;;;;;5093446;28;20039;-78
2021/08/11 10:43:38;;;;;;;11.63;10.07;;;26.80;62.70;;;;;;5106186;28;20066;-79
2021/08/11 10:46:08;;;;;;;9.82;8.82;;;26.80;63.00;;;;;;5094612;28;20040;-80
2021/08/11 10:48:35;;;;;;;9.60;8.70;;;26.80;62.80;;;;;;5115311;28;20109;-80
2021/08/11 10:51:01;;;;;;;10.68;9.57;;;26.80;63.00;;;;;;5112978;28;20058;-81
2021/08/11 10:53:27;;;;;;;10.50;8.35;;;26.90;62.70;;;;;;5098853;28;20032;-79
2021/08/11 10:55:54;;;;;;;9.15;8.35;;;27.00;62.70;;;;;;5098624;28;20023;-82
2021/08/11 10:58:40;;;;;;;9.10;7.28;;;27.20;62.30;;;;;;5096626;28;20027;-79
2021/08/11 11:01:35;;;;;;;7.05;6.35;;;27.70;62.00;;;;;;5076559;28;20036;-80
2021/08/11 11:04:03;;;;;;;7.90;7.20;;;28.30;60.90;;;;;;5107797;28;20059;-80
2021/08/11 11:06:52;;;;;;;7.72;7.03;;;28.90;59.70;;;;;;5102762;28;20043;-81
2021/08/11 11:09:20;;;;;;;9.15;8.23;;;29.40;58.30;;;;;;5076723;28;20502;-79
2021/08/11 11:11:46;;;;;;;6.25;5.22;;;29.60;57.70;;;;;;5093360;28;20063;-80
2021/08/11 11:14:42;;;;;;;5.93;5.40;;;29.70;57.00;;;;;;5096889;28;20093;-80
2021/08/11 11:17:08;;;;;;;8.55;6.00;;;29.80;56.00;;;;;;5102556;28;20028;-82
2021/08/11 11:19:54;;;;;;;7.32;6.63;;;29.60;55.40;;;;;;5096005;28;20039;-80
2021/08/11 11:22:37;;;;;;;7.15;5.47;;;29.40;52.60;;;;;;5110476;27;20031;-79
2021/08/11 11:25:05;;;;;;;5.38;4.88;;;28.60;54.10;;;;;;5111761;28;20033;-80
2021/08/11 11:27:53;;;;;;;5.40;5.00;;;28.40;56.50;;;;;;5114222;28;20460;-79
2021/08/11 11:30:27;;;;;;;5.63;5.13;;;28.40;58.00;;;;;;5110994;28;20049;-79
2021/08/11 11:33:18;;;;;;;4.55;4.15;;;28.60;57.60;;;;;;5112791;28;20089;-79
2021/08/11 11:35:44;;;;;;;5.68;5.07;;;28.70;56.70;;;;;;5095534;28;20100;-79
2021/08/11 11:38:14;;;;;;;4.93;4.53;;;28.60;54.70;;;;;;5095627;28;20436;-79
2021/08/11 11:41:03;;;;;;;4.00;3.70;;;28.30;56.20;;;;;;5095686;28;20447;-79
2021/08/11 11:43:31;;;;;;;5.25;3.05;;;28.40;56.90;;;;;;5084737;28;20032;-79
2021/08/11 11:45:58;;;;;;;4.15;2.80;;;28.80;57.00;;;;;;5105145;28;20067;-81
2021/08/11 11:48:24;;;;;;;3.70;2.50;;;29.20;54.20;;;;;;5106003;28;20024;-80
2021/08/11 11:51:02;;;;;;;2.58;2.13;;;29.50;54.20;;;;;;5111426;28;20080;-80
2021/08/11 11:53:33;;;;;;;5.57;3.90;;;29.70;53.60;;;;;;5102062;28;20122;-80
2021/08/11 11:56:10;;;;;;;3.08;2.63;;;29.80;52.70;;;;;;5097550;28;20024;-80
2021/08/11 11:58:42;;;;;;;2.95;2.08;;;29.60;53.10;;;;;;5108107;28;20077;-80
2021/08/11 12:01:07;;;;;;;2.55;2.22;;;29.80;53.10;;;;;;5108152;28;20084;-84
2021/08/11 12:03:39;;;;;;;2.50;2.22;;;30.10;52.30;;;;;;5103555;28;20039;-81
2021/08/11 12:06:06;;;;;;;3.40;2.15;;;30.10;52.10;;;;;;5110664;28;20032;-85
2021/08/11 12:08:32;;;;;;;4.53;2.88;;;30.00;51.40;;;;;;5111153;28;20016;-81
2021/08/11 12:11:12;;;;;;;3.75;2.30;;;29.90;51.50;;;;;;5077352;28;20030;-80
2021/08/11 12:13:45;;;;;;;2.78;2.40;;;29.70;51.70;;;;;;5087061;28;20035;-80
2021/08/11 12:16:13;;;;;;;3.60;2.97;;;29.40;51.80;;;;;;5103564;28;20036;-80
2021/08/11 12:18:41;;;;;;;3.13;2.83;;;29.30;52.10;;;;;;5103447;28;20032;-80
2021/08/11 12:21:07;;;;;;;2.60;1.85;;;29.40;52.50;;;;;;5087869;28;20097;-83
2021/08/11 12:23:34;;;;;;;3.05;1.90;;;29.60;52.20;;;;;;5094784;28;20072;-79
2021/08/11 12:26:12;;;;;;;2.40;2.20;;;29.50;51.20;;;;;;5110527;28;20035;-79
2021/08/11 12:28:43;;;;;;;2.50;1.98;;;29.60;51.00;;;;;;5124665;27;20027;-78
2021/08/11 12:31:10;;;;;;;1.80;1.45;;;29.60;50.50;;;;;;5127670;28;20105;-83
2021/08/11 12:33:38;;;;;;;4.25;2.13;;;29.60;50.50;;;;;;5130704;28;20469;-79
2021/08/11 12:36:10;;;;;;;2.70;2.17;;;29.60;50.20;;;;;;5129584;28;20027;-79
2021/08/11 12:38:41;;;;;;;3.63;2.17;;;29.50;51.00;;;;;;5129740;28;20026;-79
2021/08/11 12:41:19;;;;;;;3.15;2.72;;;29.60;51.40;;;;;;5128606;28;20048;-78